createdAt,value
2017-06-24T00:01:14.862Z,19.70
2017-06-24T00:03:42.373Z,19.70
2017-06-24T00:06:09.878Z,19.70
2017-06-24T00:08:37.679Z,19.60
2017-06-24T00:11:05.199Z,19.60
2017-06-24T00:13:32.703Z,19.60
2017-06-24T00:16:00.503Z,19.60
2017-06-24T00:18:28.015Z,19.60
2017-06-24T00:20:55.531Z,19.60
2017-06-24T00:23:23.107Z,19.70
2017-06-24T00:25:50.667Z,19.70
2017-06-24T00:28:18.443Z,19.70
2017-06-24T00:30:46.346Z,19.90
2017-06-24T00:33:13.875Z,19.80
2017-06-24T00:35:41.403Z,19.80
2017-06-24T00:38:09.343Z,19.70
2017-06-24T00:40:36.928Z,19.70
2017-06-24T00:43:04.479Z,19.50
2017-06-24T00:45:32.096Z,19.40
2017-06-24T00:47:59.599Z,19.20
2017-06-24T00:50:27.191Z,19.10
2017-06-24T00:52:54.792Z,19.00
2017-06-24T00:55:22.315Z,19.10
2017-06-24T00:57:49.827Z,19.00
2017-06-24T01:00:17.543Z,18.90
2017-06-24T01:02:45.054Z,18.80
2017-06-24T01:05:12.568Z,18.70
2017-06-24T01:07:40.170Z,18.60
2017-06-24T01:10:07.831Z,18.50
2017-06-24T01:12:35.395Z,18.40
2017-06-24T01:15:03.223Z,18.30
2017-06-24T01:17:30.731Z,18.30
2017-06-24T01:19:58.243Z,18.30
2017-06-24T01:22:25.872Z,18.30
2017-06-24T01:24:53.386Z,18.20
2017-06-24T01:27:20.898Z,18.10
2017-06-24T01:29:48.597Z,18.10
2017-06-24T01:32:16.107Z,18.00
2017-06-24T01:34:43.778Z,18.10
2017-06-24T01:37:11.626Z,17.90
2017-06-24T01:39:39.229Z,18.00
2017-06-24T01:42:06.737Z,17.90
2017-06-24T01:44:34.666Z,17.90
2017-06-24T01:47:02.226Z,17.90
2017-06-24T01:49:29.870Z,17.90
2017-06-24T01:51:57.448Z,17.90
2017-06-24T01:54:25.139Z,18.10
2017-06-24T01:56:52.696Z,18.00
2017-06-24T01:59:20.276Z,18.10
2017-06-24T02:01:47.787Z,18.20
2017-06-24T02:04:15.343Z,18.20
2017-06-24T02:06:42.932Z,18.20
2017-06-24T02:09:10.459Z,18.30
2017-06-24T02:11:37.979Z,18.40
2017-06-24T02:14:05.839Z,18.60
2017-06-24T02:16:33.373Z,18.60
2017-06-24T02:19:01.044Z,18.70
2017-06-24T02:21:28.615Z,18.80
2017-06-24T02:23:56.162Z,18.80
2017-06-24T02:26:23.679Z,18.90
2017-06-24T02:28:51.302Z,19.00
2017-06-24T02:31:18.843Z,19.10
2017-06-24T02:33:46.355Z,19.20
2017-06-24T02:36:14.159Z,19.30
2017-06-24T02:38:41.667Z,19.30
2017-06-24T02:41:09.173Z,19.30
2017-06-24T02:43:37.003Z,19.40
2017-06-24T02:46:04.669Z,19.50
2017-06-24T02:48:32.231Z,19.40
2017-06-24T02:50:59.840Z,19.50
2017-06-24T02:53:27.456Z,19.50
2017-06-24T02:55:54.989Z,19.60
2017-06-24T02:58:22.567Z,19.70
2017-06-24T03:00:50.081Z,19.60
2017-06-24T03:03:17.668Z,19.50
2017-06-24T03:05:45.227Z,19.50
2017-06-24T03:08:12.951Z,19.50
2017-06-24T03:10:40.524Z,19.60
2017-06-24T03:13:08.364Z,19.40
2017-06-24T03:15:35.867Z,19.30
2017-06-24T03:18:03.463Z,19.30
2017-06-24T03:20:31.028Z,19.20
2017-06-24T03:22:58.568Z,19.20
2017-06-24T03:25:26.103Z,19.10
2017-06-24T03:27:53.657Z,19.10
2017-06-24T03:30:21.163Z,19.00
2017-06-24T03:32:48.683Z,19.10
2017-06-24T03:35:16.702Z,19.10
2017-06-24T03:37:44.231Z,19.20
2017-06-24T03:40:11.743Z,19.20
2017-06-24T03:42:39.310Z,19.30
2017-06-24T03:45:07.273Z,19.10
2017-06-24T03:47:34.819Z,19.20
2017-06-24T03:50:02.643Z,19.30
2017-06-24T03:52:30.146Z,19.30
2017-06-24T03:54:57.651Z,19.30
2017-06-24T03:57:25.470Z,19.40
2017-06-24T03:59:52.984Z,19.50
2017-06-24T04:02:20.503Z,19.50
2017-06-24T04:04:48.543Z,19.60
2017-06-24T04:07:16.092Z,19.50
2017-06-24T04:09:43.612Z,19.50
2017-06-24T04:12:11.184Z,19.30
2017-06-24T04:14:38.691Z,19.40
2017-06-24T04:17:06.239Z,19.30
2017-06-24T04:19:34.240Z,19.40
2017-06-24T04:22:01.747Z,19.40
2017-06-24T04:24:29.274Z,19.40
2017-06-24T04:26:56.841Z,19.60
2017-06-24T04:29:24.414Z,19.80
2017-06-24T04:31:51.915Z,19.80
2017-06-24T04:34:19.752Z,19.90
2017-06-24T04:36:47.311Z,19.90
2017-06-24T04:39:15.404Z,20.00
2017-06-24T04:41:43.217Z,20.10
2017-06-24T04:44:10.827Z,20.20
2017-06-24T04:46:38.341Z,20.20
2017-06-24T04:49:05.979Z,20.30
2017-06-24T04:51:33.483Z,20.30
2017-06-24T04:54:00.992Z,20.30
2017-06-24T04:56:28.845Z,20.30
2017-06-24T04:58:56.391Z,20.30
2017-06-24T05:01:23.899Z,20.50
2017-06-24T05:03:51.484Z,20.60
2017-06-24T05:06:18.995Z,20.70
2017-06-24T05:08:46.499Z,20.80
2017-06-24T05:11:14.111Z,20.90
2017-06-24T05:13:42.282Z,21.00
2017-06-24T05:16:09.844Z,21.00
2017-06-24T05:18:37.404Z,21.20
2017-06-24T05:21:05.791Z,21.50
2017-06-24T05:23:33.411Z,21.80
2017-06-24T05:26:00.940Z,22.10
2017-06-24T05:28:28.775Z,22.30
2017-06-24T05:30:56.287Z,22.60
2017-06-24T05:33:23.793Z,22.80
2017-06-24T05:35:52.512Z,22.80
2017-06-24T05:38:20.033Z,22.60
2017-06-24T05:40:47.579Z,22.70
2017-06-24T05:43:15.203Z,22.80
2017-06-24T05:45:42.715Z,22.60
2017-06-24T05:48:10.219Z,22.40
2017-06-24T05:50:38.032Z,22.40
2017-06-24T05:53:05.565Z,22.50
2017-06-24T05:55:33.070Z,22.40
2017-06-24T05:58:00.878Z,22.40
2017-06-24T06:00:28.389Z,22.70
2017-06-24T06:02:55.995Z,22.80
2017-06-24T06:05:23.547Z,23.30
2017-06-24T06:07:51.067Z,23.60
2017-06-24T06:10:18.574Z,24.00
2017-06-24T06:12:46.477Z,24.70
2017-06-24T06:15:15.135Z,24.80
2017-06-24T06:17:42.646Z,25.50
2017-06-24T06:20:10.348Z,24.90
2017-06-24T06:22:37.862Z,24.70
2017-06-24T06:25:05.575Z,25.20
2017-06-24T06:27:33.376Z,25.50
2017-06-24T06:30:00.912Z,25.00
2017-06-24T06:32:28.423Z,24.70
2017-06-24T06:34:56.296Z,24.50
2017-06-24T06:37:23.798Z,24.50
2017-06-24T06:39:51.320Z,24.40
2017-06-24T06:42:19.177Z,24.90
2017-06-24T06:44:46.736Z,24.20
2017-06-24T06:47:14.403Z,24.30
2017-06-24T06:49:42.407Z,24.50
2017-06-24T06:52:10.261Z,24.30
2017-06-24T06:54:37.855Z,24.50
2017-06-24T06:57:05.862Z,24.30
2017-06-24T06:59:33.819Z,23.90
2017-06-24T07:02:01.837Z,23.60
2017-06-24T07:04:29.887Z,23.90
2017-06-24T07:06:57.605Z,24.10
2017-06-24T07:09:25.223Z,24.50
2017-06-24T07:11:52.763Z,24.70
2017-06-24T07:14:20.279Z,25.50
2017-06-24T07:16:47.846Z,26.50
2017-06-24T07:19:15.423Z,27.10
2017-06-24T07:21:42.986Z,28.20
2017-06-24T07:24:10.495Z,27.90
2017-06-24T07:26:38.051Z,28.00
2017-06-24T07:29:05.562Z,28.90
2017-06-24T07:31:33.140Z,28.70
2017-06-24T07:34:00.954Z,28.20
2017-06-24T07:36:28.543Z,26.90
2017-06-24T07:38:56.097Z,26.70
2017-06-24T07:41:23.604Z,26.40
2017-06-24T07:43:51.400Z,26.70
2017-06-24T07:46:19.123Z,26.90
2017-06-24T07:48:46.656Z,27.00
2017-06-24T07:51:14.207Z,25.80
2017-06-24T07:53:41.715Z,26.20
2017-06-24T07:56:09.219Z,26.80
2017-06-24T07:58:36.826Z,27.60
2017-06-24T08:01:04.341Z,28.50
2017-06-24T08:03:31.861Z,28.90
2017-06-24T08:05:59.656Z,28.70
2017-06-24T08:08:27.191Z,28.20
2017-06-24T08:10:54.700Z,27.70
2017-06-24T08:13:22.507Z,28.00
2017-06-24T08:15:50.188Z,28.30
2017-06-24T08:18:17.741Z,27.40
2017-06-24T08:20:45.407Z,27.20
2017-06-24T08:23:12.908Z,28.40
2017-06-24T08:25:40.512Z,29.20
2017-06-24T08:28:08.133Z,28.20
2017-06-24T08:30:35.769Z,28.40
2017-06-24T08:33:03.284Z,29.10
2017-06-24T08:35:31.129Z,28.80
2017-06-24T08:37:58.643Z,29.50
2017-06-24T08:40:26.167Z,29.00
2017-06-24T08:42:53.972Z,29.40
2017-06-24T08:45:21.478Z,28.60
2017-06-24T08:47:48.995Z,27.00
2017-06-24T08:50:16.619Z,27.00
2017-06-24T08:52:45.356Z,27.20
2017-06-24T08:55:13.206Z,28.30
2017-06-24T08:57:41.714Z,28.90
2017-06-24T09:00:09.864Z,28.00
2017-06-24T09:02:37.537Z,28.50
2017-06-24T09:05:05.074Z,30.20
2017-06-24T09:07:33.189Z,30.20
2017-06-24T09:10:00.587Z,29.80
2017-06-24T09:12:28.703Z,30.80
2017-06-24T09:14:56.235Z,30.60
2017-06-24T09:17:24.663Z,28.80
2017-06-24T09:19:52.328Z,28.90
2017-06-24T09:22:19.891Z,29.00
2017-06-24T09:24:47.699Z,30.30
2017-06-24T09:27:15.608Z,31.00
2017-06-24T09:29:43.128Z,30.40
2017-06-24T09:32:10.833Z,30.50
2017-06-24T09:34:38.389Z,30.40
2017-06-24T09:37:05.918Z,29.60
2017-06-24T09:39:33.573Z,30.30
2017-06-24T09:42:01.104Z,29.60
2017-06-24T09:44:28.607Z,30.10
2017-06-24T09:46:56.251Z,30.60
2017-06-24T09:49:23.757Z,31.20
2017-06-24T09:51:51.298Z,32.70
2017-06-24T09:54:19.245Z,32.50
2017-06-24T09:56:46.791Z,31.80
2017-06-24T09:59:14.296Z,31.20
2017-06-24T10:01:41.863Z,32.10
2017-06-24T10:04:09.411Z,32.40
2017-06-24T10:06:36.914Z,32.60
2017-06-24T10:09:04.511Z,31.00
2017-06-24T10:11:32.186Z,31.10
2017-06-24T10:13:59.710Z,30.60
2017-06-24T10:16:27.751Z,31.00
2017-06-24T10:18:55.344Z,31.00
2017-06-24T10:21:22.847Z,31.60
2017-06-24T10:23:50.415Z,30.50
2017-06-24T10:26:17.951Z,30.60
2017-06-24T10:28:45.468Z,31.20
2017-06-24T10:31:13.279Z,30.70
2017-06-24T10:33:40.775Z,31.40
2017-06-24T10:36:08.401Z,31.60
2017-06-24T10:38:35.956Z,31.30
2017-06-24T10:41:03.495Z,30.90
2017-06-24T10:43:31.002Z,31.60
2017-06-24T10:45:58.622Z,32.00
2017-06-24T10:48:26.242Z,31.80
2017-06-24T10:50:53.763Z,32.80
2017-06-24T10:53:21.567Z,32.30
2017-06-24T10:55:49.085Z,31.80
2017-06-24T10:58:16.587Z,32.10
2017-06-24T11:00:44.582Z,31.90
2017-06-24T11:03:12.371Z,32.70
2017-06-24T11:05:39.931Z,34.10
2017-06-24T11:08:07.831Z,35.60
2017-06-24T11:10:35.336Z,36.40
2017-06-24T11:13:02.939Z,33.90
2017-06-24T11:15:30.728Z,32.80
2017-06-24T11:17:58.243Z,31.30
2017-06-24T11:20:25.951Z,32.80
2017-06-24T11:22:53.519Z,34.10
2017-06-24T11:25:21.023Z,34.40
2017-06-24T11:27:48.530Z,34.20
2017-06-24T11:30:16.168Z,32.30
2017-06-24T11:32:43.682Z,33.00
2017-06-24T11:35:11.243Z,33.30
2017-06-24T11:37:38.827Z,33.00
2017-06-24T11:40:06.427Z,32.60
2017-06-24T11:42:33.943Z,32.30
2017-06-24T11:45:01.568Z,32.70
2017-06-24T11:47:29.085Z,33.90
2017-06-24T11:49:56.679Z,32.90
2017-06-24T11:52:24.252Z,32.60
2017-06-24T11:54:51.771Z,33.10
2017-06-24T11:57:19.395Z,32.60
2017-06-24T11:59:46.975Z,31.80
2017-06-24T12:02:14.508Z,32.80
2017-06-24T12:04:42.014Z,31.50
2017-06-24T12:07:09.817Z,30.90
2017-06-24T12:09:37.348Z,30.90
2017-06-24T12:12:04.988Z,30.90
2017-06-24T12:14:32.901Z,31.40
2017-06-24T12:17:00.420Z,32.40
2017-06-24T12:19:27.933Z,32.00
2017-06-24T12:21:55.630Z,30.90
2017-06-24T12:24:23.152Z,29.90
2017-06-24T12:26:50.659Z,29.90
2017-06-24T12:29:18.229Z,29.70
2017-06-24T12:31:45.739Z,29.30
2017-06-24T12:34:13.322Z,30.10
2017-06-24T12:36:40.905Z,30.20
2017-06-24T12:39:08.437Z,30.30
2017-06-24T12:41:36.007Z,30.50
2017-06-24T12:44:03.859Z,30.60
2017-06-24T12:46:32.338Z,31.20
2017-06-24T12:48:59.853Z,31.30
2017-06-24T12:51:27.411Z,30.90
2017-06-24T12:53:56.479Z,30.90
2017-06-24T12:56:24.444Z,30.90
2017-06-24T12:58:52.718Z,30.40
2017-06-24T13:01:20.368Z,30.60
2017-06-24T13:03:47.888Z,30.80
2017-06-24T13:06:15.448Z,30.90
2017-06-24T13:08:43.015Z,30.90
2017-06-24T13:11:10.554Z,31.30
2017-06-24T13:13:38.576Z,31.60
2017-06-24T13:16:06.419Z,31.80
2017-06-24T13:18:33.922Z,31.90
2017-06-24T13:21:01.474Z,31.80
2017-06-24T13:23:29.036Z,32.10
2017-06-24T13:25:56.595Z,32.20
2017-06-24T13:28:24.865Z,32.50
2017-06-24T13:30:52.476Z,33.40
2017-06-24T13:33:20.006Z,33.60
2017-06-24T13:35:47.580Z,33.30
2017-06-24T13:38:15.474Z,32.50
2017-06-24T13:40:43.011Z,32.00
2017-06-24T13:43:10.851Z,31.60
2017-06-24T13:45:39.405Z,31.60
2017-06-24T13:48:06.917Z,32.30
2017-06-24T13:50:34.445Z,32.70
2017-06-24T13:53:02.099Z,32.40
2017-06-24T13:55:29.679Z,32.60
2017-06-24T13:57:57.224Z,32.30
2017-06-24T14:00:24.786Z,32.70
2017-06-24T14:02:52.408Z,32.60
2017-06-24T14:05:19.936Z,32.60
2017-06-24T14:07:47.509Z,32.30
2017-06-24T14:10:15.012Z,32.20
2017-06-24T14:12:42.519Z,31.80
2017-06-24T14:15:10.127Z,31.20
2017-06-24T14:17:37.645Z,31.00
2017-06-24T14:20:05.163Z,31.30
2017-06-24T14:22:32.910Z,31.50
2017-06-24T14:25:00.447Z,31.60
2017-06-24T14:27:27.955Z,32.40
2017-06-24T14:29:55.763Z,32.70
2017-06-24T14:32:23.279Z,32.00
2017-06-24T14:34:50.818Z,31.70
2017-06-24T14:37:18.630Z,31.80
2017-06-24T14:39:46.139Z,31.90
2017-06-24T14:42:13.647Z,31.20
2017-06-24T14:44:41.559Z,31.70
2017-06-24T14:47:09.261Z,32.40
2017-06-24T14:49:36.768Z,31.70
2017-06-24T14:52:04.615Z,31.10
2017-06-24T14:54:32.175Z,31.70
2017-06-24T14:56:59.771Z,30.90
2017-06-24T14:59:27.333Z,31.10
2017-06-24T15:01:54.867Z,30.90
2017-06-24T15:04:22.376Z,30.90
2017-06-24T15:06:50.052Z,30.50
2017-06-24T15:09:17.593Z,29.70
2017-06-24T15:11:45.120Z,30.10
2017-06-24T15:14:12.791Z,30.10
2017-06-24T15:16:40.287Z,30.10
2017-06-24T15:19:07.787Z,30.00
2017-06-24T15:21:35.371Z,29.60
2017-06-24T15:24:02.921Z,29.60
2017-06-24T15:26:30.424Z,30.10
2017-06-24T15:28:58.063Z,30.50
2017-06-24T15:31:25.331Z,29.70
2017-06-24T15:33:52.838Z,30.30
2017-06-24T15:36:20.731Z,30.90
2017-06-24T15:38:48.986Z,30.70
2017-06-24T15:41:16.523Z,30.00
2017-06-24T15:43:44.259Z,29.50
2017-06-24T15:46:12.175Z,30.00
2017-06-24T15:48:40.063Z,29.70
2017-06-24T15:51:07.717Z,29.90
2017-06-24T15:53:35.373Z,30.00
2017-06-24T15:56:02.988Z,29.70
2017-06-24T15:58:30.639Z,29.30
2017-06-24T16:00:58.733Z,29.00
2017-06-24T16:03:26.331Z,29.70
2017-06-24T16:05:53.912Z,29.10
2017-06-24T16:08:21.608Z,29.20
2017-06-24T16:10:49.249Z,28.80
2017-06-24T16:13:17.286Z,28.50
2017-06-24T16:15:46.019Z,28.10
2017-06-24T16:18:13.535Z,27.70
2017-06-24T16:20:42.209Z,27.40
2017-06-24T16:23:09.811Z,27.40
2017-06-24T16:25:37.600Z,27.50
2017-06-24T16:28:05.217Z,27.90
2017-06-24T16:30:32.807Z,28.30
2017-06-24T16:33:00.463Z,27.90
2017-06-24T16:35:27.983Z,27.40
2017-06-24T16:37:55.710Z,26.80
2017-06-24T16:40:23.284Z,27.00
2017-06-24T16:42:50.795Z,26.90
2017-06-24T16:45:18.647Z,27.00
2017-06-24T16:47:46.155Z,26.90
2017-06-24T16:50:13.663Z,27.30
2017-06-24T16:52:41.575Z,27.20
2017-06-24T16:55:09.220Z,26.90
2017-06-24T16:57:36.739Z,26.80
2017-06-24T17:00:04.402Z,27.00
2017-06-24T17:02:31.911Z,27.10
2017-06-24T17:04:59.459Z,27.40
2017-06-24T17:07:27.347Z,27.30
2017-06-24T17:09:55.252Z,27.10
2017-06-24T17:12:22.763Z,27.20
2017-06-24T17:14:51.186Z,27.50
2017-06-24T17:17:18.800Z,27.70
2017-06-24T17:19:46.299Z,27.20
2017-06-24T17:22:15.250Z,26.90
2017-06-24T17:24:42.977Z,26.70
2017-06-24T17:27:10.503Z,26.90
2017-06-24T17:29:38.127Z,26.60
2017-06-24T17:32:05.635Z,26.60
2017-06-24T17:34:33.192Z,26.80
2017-06-24T17:37:01.027Z,27.10
2017-06-24T17:39:28.544Z,27.40
2017-06-24T17:41:56.059Z,27.40
2017-06-24T17:44:23.708Z,27.30
2017-06-24T17:46:51.231Z,27.30
2017-06-24T17:49:18.748Z,27.00
2017-06-24T17:51:46.312Z,27.40
2017-06-24T17:54:13.936Z,27.50
2017-06-24T17:56:41.499Z,27.10
2017-06-24T17:59:09.055Z,27.10
2017-06-24T18:01:36.592Z,27.00
2017-06-24T18:04:04.163Z,26.80
2017-06-24T18:06:32.027Z,26.80
2017-06-24T18:08:59.602Z,26.60
2017-06-24T18:11:27.131Z,26.50
2017-06-24T18:13:54.715Z,26.60
2017-06-24T18:16:22.288Z,26.60
2017-06-24T18:18:49.832Z,26.60
2017-06-24T18:21:18.091Z,26.70
2017-06-24T18:23:45.609Z,26.70
2017-06-24T18:26:13.149Z,26.80
2017-06-24T18:28:40.958Z,26.70
2017-06-24T18:31:08.722Z,26.60
2017-06-24T18:33:36.235Z,26.50
2017-06-24T18:36:04.498Z,26.20
2017-06-24T18:38:32.065Z,26.10
2017-06-24T18:41:00.336Z,26.00
2017-06-24T18:43:28.415Z,25.90
2017-06-24T18:45:56.033Z,25.90
2017-06-24T18:48:23.944Z,25.90
2017-06-24T18:50:51.467Z,25.70
2017-06-24T18:53:18.986Z,25.70
2017-06-24T18:55:46.596Z,25.60
2017-06-24T18:58:14.120Z,25.50
2017-06-24T19:00:41.669Z,25.40
2017-06-24T19:03:09.479Z,25.10
2017-06-24T19:05:36.991Z,25.00
2017-06-24T19:08:04.552Z,24.90
2017-06-24T19:10:32.476Z,24.70
2017-06-24T19:12:59.992Z,24.50
2017-06-24T19:15:27.567Z,24.40
2017-06-24T19:17:55.481Z,24.40
2017-06-24T19:20:23.527Z,24.30
2017-06-24T19:22:51.093Z,24.20
2017-06-24T19:25:18.663Z,24.10
2017-06-24T19:27:46.175Z,24.00
2017-06-24T19:30:13.793Z,23.90
2017-06-24T19:32:41.368Z,23.70
2017-06-24T19:35:08.920Z,23.60
2017-06-24T19:37:36.447Z,23.50
2017-06-24T19:40:04.056Z,23.40
2017-06-24T19:42:31.592Z,23.40
2017-06-24T19:44:59.107Z,23.30
2017-06-24T19:47:27.032Z,23.30
2017-06-24T19:49:54.730Z,23.10
2017-06-24T19:52:22.249Z,23.10
2017-06-24T19:54:49.844Z,23.00
2017-06-24T19:57:17.451Z,22.90
2017-06-24T19:59:44.973Z,22.80
2017-06-24T20:02:12.547Z,22.60
2017-06-24T20:04:40.057Z,22.60
2017-06-24T20:07:07.567Z,22.50
2017-06-24T20:09:35.199Z,22.40
2017-06-24T20:12:02.715Z,22.30
2017-06-24T20:14:30.254Z,22.30
2017-06-24T20:16:58.130Z,22.20
2017-06-24T20:19:25.731Z,22.10
2017-06-24T20:21:53.397Z,22.00
2017-06-24T20:24:20.924Z,21.90
2017-06-24T20:26:49.380Z,21.80
2017-06-24T20:29:16.955Z,21.70
2017-06-24T20:31:44.475Z,21.60
2017-06-24T20:34:12.503Z,21.50
2017-06-24T20:36:40.109Z,21.40
2017-06-24T20:39:07.616Z,21.40
2017-06-24T20:41:35.127Z,21.40
2017-06-24T20:44:02.688Z,21.40
2017-06-24T20:46:30.228Z,21.50
2017-06-24T20:48:58.176Z,21.30
2017-06-24T20:51:26.360Z,21.20
2017-06-24T20:53:53.950Z,21.30
2017-06-24T20:56:21.461Z,21.40
2017-06-24T20:58:50.242Z,21.50
2017-06-24T21:01:18.728Z,21.50
2017-06-24T21:03:46.235Z,21.30
2017-06-24T21:06:16.946Z,21.20
2017-06-24T21:08:44.455Z,21.20
2017-06-24T21:11:12.620Z,21.30
2017-06-24T21:13:40.597Z,21.30
2017-06-24T21:16:08.116Z,21.40
2017-06-24T21:18:36.005Z,21.50
2017-06-24T21:21:03.797Z,21.60
2017-06-24T21:23:31.563Z,21.50
2017-06-24T21:25:59.484Z,21.50
2017-06-24T21:28:27.327Z,21.50
2017-06-24T21:30:54.867Z,21.60
2017-06-24T21:33:23.035Z,21.50
2017-06-24T21:35:50.607Z,21.50
2017-06-24T21:38:18.133Z,21.40
2017-06-24T21:40:45.705Z,21.20
2017-06-24T21:43:13.279Z,21.20
2017-06-24T21:45:40.807Z,21.20
2017-06-24T21:48:08.589Z,21.10
2017-06-24T21:50:36.120Z,20.90
2017-06-24T21:53:03.652Z,20.70
2017-06-24T21:55:31.569Z,20.80
2017-06-24T21:57:59.257Z,20.60
2017-06-24T22:00:26.867Z,20.50
2017-06-24T22:02:54.723Z,20.40
2017-06-24T22:05:22.287Z,20.30
2017-06-24T22:07:49.985Z,20.30
2017-06-24T22:10:17.555Z,20.20
2017-06-24T22:12:45.756Z,20.10
2017-06-24T22:15:13.615Z,19.90
2017-06-24T22:17:41.276Z,19.80
2017-06-24T22:20:09.026Z,19.80
2017-06-24T22:22:36.783Z,19.70
2017-06-24T22:25:04.731Z,19.60
2017-06-24T22:27:32.534Z,19.50
2017-06-24T22:30:00.239Z,19.50
2017-06-24T22:32:28.004Z,19.50
2017-06-24T22:34:55.735Z,19.50
2017-06-24T22:37:23.447Z,19.50
2017-06-24T22:39:51.204Z,19.40
2017-06-24T22:42:19.040Z,19.50
2017-06-24T22:44:46.726Z,19.50
2017-06-24T22:47:14.435Z,19.30
2017-06-24T22:49:42.154Z,19.10
2017-06-24T22:52:09.800Z,19.10
2017-06-24T22:54:37.774Z,19.00
2017-06-24T22:57:05.496Z,19.00
2017-06-24T22:59:33.131Z,19.10
2017-06-24T23:02:00.824Z,19.00
2017-06-24T23:04:28.506Z,18.90
2017-06-24T23:06:56.049Z,18.90
2017-06-24T23:09:24.022Z,18.90
2017-06-24T23:11:51.713Z,18.90
2017-06-24T23:14:19.287Z,18.90
2017-06-24T23:16:46.972Z,19.00
2017-06-24T23:19:14.562Z,19.00
2017-06-24T23:21:42.245Z,18.90
2017-06-24T23:24:10.239Z,18.80
2017-06-24T23:26:38.014Z,18.80
2017-06-24T23:29:05.720Z,18.90
2017-06-24T23:31:33.913Z,18.80
2017-06-24T23:34:01.773Z,18.90
2017-06-24T23:36:29.501Z,18.80
2017-06-24T23:38:57.374Z,18.70
2017-06-24T23:41:25.157Z,18.70
2017-06-24T23:43:52.784Z,18.70
2017-06-24T23:46:20.933Z,18.60
2017-06-24T23:48:48.644Z,18.70
2017-06-24T23:51:16.355Z,18.70
2017-06-24T23:53:44.127Z,18.80
2017-06-24T23:56:11.822Z,18.90
2017-06-24T23:58:39.497Z,18.90
